HAF212 LGEL-LGEL

Flight info

Callsign HAF212
Flight time 0h 8m
Altitude 2000
Route LGMG LOCAL FLIGHT
Aircraft CL41/L-GPS/C

Departure

Time 2026-04-18 10:54
Airport Elefsis Air Base (LGEL)

Arrival

Time 2026-04-18 11:03
Airport Elefsis Air Base (LGEL)
Time Latitude Longitude Altitude Speed Heading
2026-04-18 10:36 38.06937 23.55104 114 ft 0 kts 83°
2026-04-18 10:51 38.06939 23.55118 116 ft 7 kts 70°
2026-04-18 10:51 38.06997 23.55167 118 ft 14 kts 21°
2026-04-18 10:52 38.07089 23.55213 122 ft 16 kts 20°
2026-04-18 10:52 38.07138 23.55240 122 ft 4 kts 26°
2026-04-18 10:52 38.07164 23.55256 125 ft 4 kts 44°
2026-04-18 10:52 38.07171 23.55299 125 ft 0 kts 82°
2026-04-18 10:53 38.07172 23.55313 125 ft 2 kts 87°
2026-04-18 10:53 38.07172 23.55318 125 ft 2 kts 87°
2026-04-18 10:53 38.07157 23.55354 120 ft 14 kts 149°
2026-04-18 10:53 38.06811 23.55362 111 ft 96 kts 179°
2026-04-18 10:54 38.05983 23.55368 180 ft 134 kts 179°
2026-04-18 10:54 38.04950 23.55418 459 ft 161 kts 174°
2026-04-18 10:54 38.03945 23.55116 1126 ft 144 kts 227°
2026-04-18 10:54 38.03446 23.53949 1386 ft 167 kts 254°
2026-04-18 10:55 38.02925 23.52580 1436 ft 175 kts 252°
2026-04-18 10:55 38.02374 23.51191 1447 ft 182 kts 247°
2026-04-18 10:55 38.01753 23.49814 1574 ft 176 kts 245°
2026-04-18 10:55 38.01175 23.48502 1682 ft 168 kts 256°
2026-04-18 10:56 38.00849 23.47025 1496 ft 178 kts 256°
2026-04-18 10:56 38.00374 23.45552 1342 ft 184 kts 250°
2026-04-18 10:56 37.99823 23.44100 1231 ft 183 kts 244°
2026-04-18 10:56 37.99206 23.42702 1023 ft 180 kts 244°
2026-04-18 10:57 37.98661 23.41259 718 ft 180 kts 255°
2026-04-18 10:57 37.98318 23.39750 490 ft 173 kts 257°
2026-04-18 10:57 37.98042 23.38305 268 ft 163 kts 264°
2026-04-18 10:57 37.98006 23.36973 205 ft 142 kts 277°
2026-04-18 10:58 37.98005 23.35825 177 ft 119 kts 278°
2026-04-18 10:58 37.97753 23.34958 105 ft 104 kts 218°
2026-04-18 10:58 37.97091 23.34435 20 ft 109 kts 197°
2026-04-18 10:58 37.96504 23.34236 9 ft 67 kts 167°
2026-04-18 10:59 37.96031 23.34395 9 ft 78 kts 159°
2026-04-18 10:59 37.95494 23.34633 9 ft 88 kts 147°
2026-04-18 10:59 37.95036 23.35119 10 ft 88 kts 120°
2026-04-18 10:59 37.94715 23.35824 231 ft 94 kts 75°
2026-04-18 11:00 37.95188 23.36219 186 ft 111 kts 353°
2026-04-18 11:00 37.95959 23.35972 400 ft 112 kts 349°
2026-04-18 11:00 37.96713 23.35834 589 ft 104 kts 12°
2026-04-18 11:00 37.97296 23.36321 460 ft 105 kts 40°
2026-04-18 11:01 37.97847 23.37003 237 ft 110 kts 38°
2026-04-18 11:01 37.98488 23.37116 266 ft 105 kts 312°
2026-04-18 11:01 37.98483 23.36248 233 ft 115 kts 216°
2026-04-18 11:02 37.96975 23.35684 10 ft 101 kts 178°
2026-04-18 11:02 37.96426 23.35775 9 ft 73 kts 135°
2026-04-18 11:02 37.96006 23.36228 8 ft 86 kts 117°
2026-04-18 11:02 37.95649 23.36857 7 ft 89 kts 104°
2026-04-18 11:03 37.95707 23.37472 7 ft 63 kts
2026-04-18 11:03 37.95982 23.37375 6 ft 35 kts 295°
2026-04-18 11:03 37.95998 23.36939 7 ft 68 kts 285°
2026-04-18 11:03 37.95956 23.36240 36 ft 92 kts 264°
2026-04-18 11:04 37.95748 23.35419 151 ft 100 kts 269°
2026-04-18 11:04 37.95667 23.34461 315 ft 104 kts 295°
2026-04-18 11:04 37.96078 23.33912 413 ft 94 kts
2026-04-18 11:04 37.96663 23.34428 413 ft 117 kts 42°
2026-04-18 11:05 37.97292 23.35173 362 ft 131 kts 39°
2026-04-18 11:05 37.97913 23.36088 209 ft 152 kts 62°
2026-04-18 11:05 37.98182 23.37343 502 ft 137 kts 66°
2026-04-18 11:05 37.98268 23.38509 704 ft 136 kts 89°
2026-04-18 11:06 37.98406 23.39674 625 ft 135 kts 53°
2026-04-18 11:06 37.99134 23.40152 577 ft 130 kts 344°
2026-04-18 11:06 37.99620 23.39239 567 ft 152 kts 274°
2026-04-18 11:06 37.99064 23.38135 412 ft 161 kts 212°
2026-04-18 11:07 37.98317 23.37411 381 ft 110 kts 219°
2026-04-18 11:07 37.97678 23.36874 213 ft 112 kts 209°
2026-04-18 11:07 37.97002 23.36400 108 ft 109 kts 204°
2026-04-18 11:07 37.96323 23.36018 10 ft 101 kts 193°
2026-04-18 11:08 37.95662 23.35823 14 ft 100 kts 178°
2026-04-18 11:08 37.94883 23.35765 177 ft 118 kts 171°
2026-04-18 11:08 37.93962 23.35765 341 ft 140 kts 167°
2026-04-18 11:08 37.93172 23.36317 605 ft 128 kts 105°
2026-04-18 11:09 37.93396 23.37299 492 ft 129 kts 24°
2026-04-18 11:09 37.94344 23.37329 404 ft 142 kts 338°
2026-04-18 11:09 37.95162 23.36691 481 ft 133 kts 328°
2026-04-18 11:09 37.95928 23.36107 508 ft 125 kts 342°
2026-04-18 11:10 37.96751 23.35896 465 ft 122 kts 17°
2026-04-18 11:10 37.97506 23.36482 255 ft 133 kts 37°
2026-04-18 11:10 37.98125 23.37355 453 ft 112 kts 30°
2026-04-18 11:10 37.98864 23.37487 403 ft 118 kts 323°
2026-04-18 11:11 37.98783 23.36540 398 ft 146 kts 204°
2026-04-18 11:11 37.97683 23.36392 213 ft 155 kts 175°
2026-04-18 11:11 37.96682 23.36356 413 ft 133 kts 172°
2026-04-18 11:11 37.95762 23.36404 219 ft 146 kts 166°
2026-04-18 11:12 37.94772 23.36555 289 ft 124 kts 164°
2026-04-18 11:12 37.94013 23.36728 43 ft 111 kts 158°
2026-04-18 11:12 37.93357 23.36977 8 ft 82 kts 143°
2026-04-18 11:12 37.92905 23.37312 7 ft 74 kts 154°
2026-04-18 11:13 37.92426 23.37581 9 ft 82 kts 153°
2026-04-18 11:13 37.91860 23.37852 10 ft 89 kts 156°
2026-04-18 11:13 37.91245 23.37923 11 ft 87 kts 186°
2026-04-18 11:13 37.90653 23.37851 9 ft 85 kts 181°
2026-04-18 11:14 37.90258 23.37824 4 ft 87 kts 182°
2026-04-18 11:14 37.89646 23.37788 1 ft 86 kts 161°
2026-04-18 11:14 37.89133 23.38051 2 ft 78 kts 126°
2026-04-18 11:14 37.88819 23.38588 2 ft 77 kts 122°
2026-04-18 11:15 37.88429 23.39087 4 ft 81 kts 164°
2026-04-18 11:15 37.87974 23.39475 3 ft 74 kts 116°
2026-04-18 11:15 37.87739 23.40077 5 ft 77 kts 150°
2026-04-18 11:15 37.87489 23.40583 4 ft 71 kts 95°
2026-04-18 11:16 37.87272 23.41181 5 ft 80 kts 136°
2026-04-18 11:16 37.87159 23.41524 4 ft 19 kts 332°
2026-04-18 11:16 37.87376 23.41272 4 ft 60 kts 296°
2026-04-18 11:16 37.87600 23.40749 5 ft 73 kts 316°
2026-04-18 11:17 37.87946 23.40185 4 ft 84 kts 317°
2026-04-18 11:17 37.88364 23.39670 6 ft 85 kts 332°
2026-04-18 11:17 37.88829 23.39180 104 ft 96 kts 325°
2026-04-18 11:17 37.89417 23.38696 173 ft 106 kts 343°
2026-04-18 11:18 37.90131 23.38295 233 ft 116 kts 339°
2026-04-18 11:18 37.90847 23.37857 372 ft 110 kts 340°
2026-04-18 11:18 37.91512 23.37482 556 ft 107 kts 345°
2026-04-18 11:18 37.92251 23.37149 521 ft 109 kts 339°
2026-04-18 11:19 37.92858 23.36745 324 ft 88 kts 337°
2026-04-18 11:19 37.93276 23.36399 226 ft 63 kts 343°
2026-04-18 11:19 37.93647 23.36143 14 ft 51 kts 331°
2026-04-18 11:19 37.93848 23.36026 11 ft 18 kts 353°